Time;durP1;ratioP1;P1;durP2;ratioP2;P2;SDS_P1;SDS_P2;PMS_P1;PMS_P2;Temp;Humidity;BMP_temperature;BMP_pressure;BME280_temperature;BME280_humidity;BME280_pressure;Samples;Min_cycle;Max_cycle;Signal;HPM_P1;HPM_P2
2023/11/20 00:01:10;;;;;;;6.77;2.00;;;10.40;77.60;;;9.92;72.09;97610.69;4948671;28;20482;-80
2023/11/20 00:03:38;;;;;;;7.83;2.10;;;10.30;77.70;;;9.96;71.47;97612.97;4964525;28;20851;-84
2023/11/20 00:06:07;;;;;;;8.70;1.90;;;10.40;77.50;;;10.06;70.88;97603.31;4946297;28;20472;-81
2023/11/20 00:08:34;;;;;;;7.30;2.03;;;10.50;77.10;;;10.10;70.76;97598.28;4956592;28;20478;-72
2023/11/20 00:11:01;;;;;;;6.53;2.00;;;10.60;76.90;;;10.08;70.36;97589.56;4969444;28;20450;-73
2023/11/20 00:13:28;;;;;;;5.30;2.10;;;10.60;76.80;;;10.18;70.25;97591.78;4974505;28;20461;-72
2023/11/20 00:15:55;;;;;;;11.93;2.60;;;10.60;76.50;;;10.22;70.33;97590.28;4967918;28;20486;-73
2023/11/20 00:18:24;;;;;;;11.50;2.00;;;10.70;76.40;;;10.18;70.19;97589.91;4955350;28;20465;-81
2023/11/20 00:20:51;;;;;;;9.97;2.67;;;10.60;76.30;;;10.17;70.41;97590.13;4946198;28;20525;-82
2023/11/20 00:23:18;;;;;;;8.13;2.07;;;10.60;76.10;;;10.26;70.04;97590.66;4945460;28;20496;-77
2023/11/20 00:25:45;;;;;;;12.20;2.47;;;10.60;76.10;;;10.28;69.65;97599.38;4944855;28;20859;-80
2023/11/20 00:28:13;;;;;;;10.27;2.20;;;10.70;75.80;;;10.21;69.75;97584.03;4946688;28;20470;-80
2023/11/20 00:30:40;;;;;;;9.30;2.07;;;10.70;75.90;;;9.98;69.47;97570.38;4941887;28;20441;-79
2023/11/20 00:33:07;;;;;;;7.37;2.53;;;10.70;75.80;;;10.22;69.83;97606.47;4948618;28;20458;-80
2023/11/20 00:35:36;;;;;;;8.30;1.93;;;10.60;75.90;;;10.26;68.81;97596.88;4946100;28;20613;-79
2023/11/20 00:38:03;;;;;;;9.43;2.40;;;10.70;75.50;;;10.28;68.48;97589.38;4950319;28;20470;-83
2023/11/20 00:40:32;;;;;;;11.43;2.13;;;10.70;75.50;;;9.87;68.39;97513.38;4961900;28;20465;-79
2023/11/20 00:43:00;;;;;;;9.90;2.10;;;10.80;75.20;;;10.35;68.22;97592.00;4949217;28;20446;-81
2023/11/20 00:45:27;;;;;;;7.73;2.10;;;10.80;75.20;;;9.98;68.21;97536.09;4946218;29;20464;-82
2023/11/20 00:47:54;;;;;;;10.07;2.73;;;10.80;75.20;;;10.30;68.02;97583.75;4943821;28;20986;-82
2023/11/20 00:50:21;;;;;;;5.60;1.63;;;10.70;75.00;;;10.46;68.74;97591.28;4949566;28;20461;-81
2023/11/20 00:52:51;;;;;;;7.70;2.20;;;10.70;75.20;;;10.39;68.43;97590.53;4963312;28;20887;-79
2023/11/20 00:55:18;;;;;;;7.13;1.90;;;10.70;75.00;;;10.36;67.53;97590.94;4950252;28;20501;-82
2023/11/20 00:57:45;;;;;;;6.90;2.30;;;10.80;74.70;;;10.49;67.33;97600.84;4951429;28;20502;-79
2023/11/20 01:00:14;;;;;;;8.20;2.10;;;10.80;74.50;;;10.43;67.27;97594.44;4951491;28;20551;-83
2023/11/20 01:02:45;;;;;;;11.23;2.63;;;10.80;74.40;;;10.40;67.61;97596.72;4945469;29;20454;-82
2023/11/20 01:05:12;;;;;;;5.00;1.70;;;10.80;74.30;;;10.36;67.66;97590.94;4950941;28;20816;-80
2023/11/20 01:07:39;;;;;;;10.57;2.33;;;10.80;74.20;;;10.45;67.10;97603.16;4951513;28;20472;-80
2023/11/20 01:10:09;;;;;;;18.17;2.13;;;10.90;74.00;;;10.49;66.57;97601.63;4952349;28;20481;-82
2023/11/20 01:12:37;;;;;;;5.33;1.70;;;10.90;73.90;;;10.47;67.39;97605.63;4950483;28;20470;-82
2023/11/20 01:15:06;;;;;;;8.63;1.93;;;10.90;73.80;;;10.42;66.96;97606.31;4944563;28;20839;-77
2023/11/20 01:17:33;;;;;;;6.27;1.90;;;10.90;73.80;;;10.43;66.89;97580.94;4946020;28;20450;-79
2023/11/20 01:20:02;;;;;;;4.90;1.93;;;10.90;73.90;;;10.54;66.73;97603.66;4958953;28;20455;-82
2023/11/20 01:22:31;;;;;;;6.03;1.93;;;11.00;73.80;;;10.00;66.90;97517.00;4974340;28;20819;-82
2023/11/20 01:24:58;;;;;;;9.97;2.33;;;11.00;73.80;;;10.55;67.19;97597.22;4951024;29;20446;-81
2023/11/20 01:27:27;;;;;;;10.50;2.17;;;11.00;74.00;;;10.62;67.36;97594.44;4949939;28;20453;-82
2023/11/20 01:29:54;;;;;;;7.00;1.93;;;11.00;73.70;;;10.66;67.24;97601.03;4950901;28;20819;-79
2023/11/20 01:32:21;;;;;;;7.10;2.00;;;11.00;74.00;;;10.61;66.84;97600.91;4948763;28;20855;-83
2023/11/20 01:34:49;;;;;;;8.30;1.93;;;11.00;73.70;;;10.55;67.42;97604.50;4948368;28;20880;-83
2023/11/20 01:37:16;;;;;;;11.90;2.10;;;11.00;73.70;;;10.54;67.60;97597.44;4963357;28;21134;-79
2023/11/20 01:39:43;;;;;;;11.63;2.10;;;11.00;73.70;;;10.57;67.70;97597.00;4950238;28;21026;-83
2023/11/20 01:42:10;;;;;;;6.43;1.90;;;11.00;73.90;;;10.57;67.06;97608.63;4951005;28;20455;-79
2023/11/20 01:44:38;;;;;;;10.87;2.40;;;11.00;73.70;;;10.11;67.33;97513.56;4945064;28;21172;-83
2023/11/20 01:47:06;;;;;;;9.37;2.00;;;11.00;73.70;;;10.32;67.39;97549.25;4950717;28;20947;-78
2023/11/20 01:49:34;;;;;;;5.37;1.70;;;11.00;73.70;;;10.61;67.49;97603.59;4943063;28;20481;-80
2023/11/20 01:52:02;;;;;;;5.20;1.80;;;11.10;73.70;;;10.59;67.10;97600.31;4941593;28;20453;-80
2023/11/20 01:54:32;;;;;;;3.37;1.40;;;11.00;73.70;;;10.59;67.59;97608.41;4949161;28;20457;-78
2023/11/20 01:57:00;;;;;;;7.97;1.80;;;11.00;73.90;;;10.46;67.49;97599.41;4948225;28;20512;-83
2023/11/20 01:59:28;;;;;;;9.03;1.90;;;11.00;73.90;;;10.54;67.32;97605.53;4963713;28;20465;-80
2023/11/20 02:01:58;;;;;;;6.17;1.90;;;11.00;73.80;;;10.37;67.84;97595.31;4961224;28;20458;-85
2023/11/20 02:04:29;;;;;;;7.17;1.97;;;11.00;73.70;;;10.54;67.60;97614.47;4932471;29;20465;-79
2023/11/20 02:06:58;;;;;;;7.50;2.20;;;11.00;73.50;;;10.55;67.46;97612.63;4949972;29;21026;-75
2023/11/20 02:09:26;;;;;;;8.13;1.97;;;11.00;73.60;;;10.34;67.66;97584.94;4963735;28;20534;-84
2023/11/20 02:11:53;;;;;;;6.87;2.63;;;11.00;73.60;;;10.53;67.53;97606.59;4960342;28;20438;-73
2023/11/20 02:14:21;;;;;;;8.83;2.37;;;11.00;73.70;;;10.52;68.09;97604.94;4968908;28;20543;-78
2023/11/20 02:16:48;;;;;;;10.50;2.30;;;11.00;73.80;;;10.39;67.52;97605.88;4957105;29;20515;-84
2023/11/20 02:19:17;;;;;;;7.40;1.90;;;11.00;73.70;;;10.30;67.82;97570.25;4956033;29;20470;-72
2023/11/20 02:21:45;;;;;;;9.80;1.87;;;11.00;73.80;;;10.34;68.46;97603.84;4948102;28;20450;-84
2023/11/20 02:24:12;;;;;;;7.03;2.07;;;11.00;74.00;;;10.48;67.82;97602.69;4951906;28;20442;-85
2023/11/20 02:26:59;;;;;;;5.50;1.60;;;10.90;74.20;;;10.51;68.69;97592.47;4955269;28;20464;-85
2023/11/20 02:29:49;;;;;;;7.10;2.33;;;11.00;74.10;;;10.43;68.97;97599.84;4966189;28;20474;-83
2023/11/20 02:32:17;;;;;;;6.77;1.70;;;10.90;74.10;;;10.36;69.14;97590.94;4951856;29;20510;-78
2023/11/20 02:34:44;;;;;;;7.87;1.70;;;10.80;74.20;;;10.31;68.80;97588.09;4948334;28;20458;-81
2023/11/20 02:37:12;;;;;;;11.27;2.30;;;10.80;74.30;;;10.35;68.66;97595.53;4949866;28;20454;-82
2023/11/20 02:39:39;;;;;;;8.83;2.20;;;10.80;74.40;;;10.39;68.65;97600.50;4951985;28;20477;-83
2023/11/20 02:42:07;;;;;;;8.70;2.10;;;10.80;74.40;;;10.19;69.23;97593.44;4950834;28;20515;-81
2023/11/20 02:44:38;;;;;;;8.20;1.83;;;10.70;74.50;;;10.27;68.99;97608.50;4949725;28;20462;-83
2023/11/20 02:47:07;;;;;;;7.40;2.00;;;10.70;74.50;;;10.20;70.00;97598.59;4947953;28;20466;-79
2023/11/20 02:49:35;;;;;;;7.00;2.03;;;10.70;74.50;;;10.17;70.73;97593.66;4948628;28;20593;-80
2023/11/20 02:52:03;;;;;;;6.00;1.77;;;10.70;74.80;;;10.23;70.45;97597.31;4947054;28;20469;-82
2023/11/20 02:54:30;;;;;;;9.20;2.10;;;10.70;75.00;;;10.20;70.64;97598.59;4948375;28;20490;-79
2023/11/20 02:56:57;;;;;;;5.67;2.43;;;10.70;75.40;;;10.16;71.27;97602.78;4948048;28;20539;-80
2023/11/20 02:59:24;;;;;;;8.03;2.30;;;10.60;75.70;;;10.14;71.53;97596.78;4948525;28;20954;-79
2023/11/20 03:01:52;;;;;;;6.03;1.73;;;10.60;75.90;;;9.89;72.52;97597.63;4947816;28;20463;-79
2023/11/20 03:04:21;;;;;;;8.90;2.30;;;10.50;76.10;;;9.85;72.41;97601.00;4980785;28;20461;-72
2023/11/20 03:06:49;;;;;;;12.97;1.83;;;10.40;76.10;;;9.96;72.29;97602.16;4969205;28;20463;-77
2023/11/20 03:09:17;;;;;;;7.33;1.83;;;10.40;76.20;;;9.79;73.08;97600.03;4969010;29;20478;-72
2023/11/20 03:11:45;;;;;;;9.07;3.17;;;10.40;76.20;;;9.86;72.02;97589.19;4957613;28;20526;-81
2023/11/20 03:14:13;;;;;;;5.10;1.70;;;10.40;76.40;;;9.85;72.66;97596.44;4949626;29;20469;-80
2023/11/20 03:16:40;;;;;;;4.63;1.40;;;10.40;76.20;;;9.80;72.59;97598.16;4951738;28;20450;-79
2023/11/20 03:19:07;;;;;;;7.43;2.10;;;10.40;76.30;;;9.80;73.24;97595.44;4952112;28;20460;-83
2023/11/20 03:21:40;;;;;;;6.07;1.63;;;10.30;76.40;;;9.78;73.04;97603.75;4944855;28;20448;-77
2023/11/20 03:24:09;;;;;;;5.90;1.90;;;10.30;76.40;;;9.70;73.63;97585.16;4950597;28;20458;-81
2023/11/20 03:26:36;;;;;;;7.80;2.10;;;10.30;76.60;;;9.75;73.05;97586.16;4955146;29;20463;-79
2023/11/20 03:29:04;;;;;;;10.63;2.67;;;10.30;76.60;;;9.64;74.23;97584.16;4959152;28;20478;-77
2023/11/20 03:31:36;;;;;;;8.03;2.30;;;10.20;76.70;;;9.67;73.79;97588.31;4963651;28;20557;-84
2023/11/20 03:34:03;;;;;;;4.60;1.60;;;10.30;76.70;;;9.79;73.91;97586.53;4976970;28;20501;-74
2023/11/20 03:36:32;;;;;;;11.50;2.40;;;10.30;76.80;;;9.71;74.71;97573.31;4964587;28;20525;-81
2023/11/20 03:39:01;;;;;;;8.67;2.50;;;10.30;77.60;;;9.67;76.36;97578.31;4962176;28;21065;-76
2023/11/20 03:41:28;;;;;;;11.97;2.77;;;10.30;78.30;;;9.71;76.59;97581.41;4962419;28;20462;-76
2023/11/20 03:43:56;;;;;;;11.33;2.10;;;10.20;78.60;;;9.71;76.69;97582.25;4965249;28;20614;-75
2023/11/20 03:46:23;;;;;;;7.30;2.73;;;10.20;78.80;;;9.66;76.30;97570.47;4951590;28;22051;-80
2023/11/20 03:48:51;;;;;;;7.87;2.00;;;10.20;78.70;;;9.57;76.27;97567.22;4952249;29;20956;-81
2023/11/20 03:51:18;;;;;;;5.27;2.83;;;10.20;78.80;;;9.49;77.18;97565.63;4968022;28;20521;-79
2023/11/20 03:53:45;;;;;;;12.53;2.40;;;10.10;78.90;;;9.53;76.64;97560.59;4958389;28;20452;-76
2023/11/20 03:56:15;;;;;;;4.43;1.90;;;10.10;78.70;;;9.74;75.87;97570.16;4956426;28;20467;-77
2023/11/20 03:58:44;;;;;;;9.87;2.10;;;10.20;78.80;;;9.59;75.99;97538.16;4962592;28;20466;-78
2023/11/20 04:01:12;;;;;;;8.43;2.07;;;10.20;78.80;;;9.73;76.75;97568.53;4961255;28;20467;-79
2023/11/20 04:03:39;;;;;;;16.03;2.50;;;10.30;78.90;;;9.59;76.61;97559.72;4962687;28;20453;-74
2023/11/20 04:06:07;;;;;;;8.57;2.17;;;10.20;78.90;;;9.58;77.17;97556.19;4969178;28;20711;-75
2023/11/20 04:08:34;;;;;;;11.67;2.53;;;10.20;78.80;;;9.76;75.90;97554.59;4971976;28;20466;-73
2023/11/20 04:11:03;;;;;;;7.53;2.10;;;10.20;78.60;;;9.61;77.12;97561.13;4971386;28;20483;-72
2023/11/20 04:13:31;;;;;;;4.23;1.83;;;10.20;78.80;;;9.63;76.66;97550.97;4970403;28;20474;-79
2023/11/20 04:15:59;;;;;;;10.33;2.20;;;10.20;78.80;;;9.69;76.30;97548.44;4959483;28;20628;-74
2023/11/20 04:18:27;;;;;;;10.77;2.00;;;10.20;78.90;;;9.25;75.58;97467.47;4953912;29;20460;-80
2023/11/20 04:20:55;;;;;;;10.10;2.67;;;10.30;79.00;;;9.71;75.93;97541.78;4956398;28;20456;-80
2023/11/20 04:23:22;;;;;;;10.77;2.43;;;10.30;79.00;;;9.81;75.58;97562.84;4954174;28;20463;-81
2023/11/20 04:25:49;;;;;;;10.33;3.10;;;10.20;78.90;;;9.79;76.19;97559.56;4951935;28;20500;-76
2023/11/20 04:28:17;;;;;;;9.43;1.80;;;10.20;79.10;;;9.68;76.54;97560.28;4952665;28;20464;-81
2023/11/20 04:30:46;;;;;;;7.90;2.10;;;10.20;78.90;;;9.35;76.51;97500.19;4951827;28;21038;-81
2023/11/20 04:33:13;;;;;;;8.80;2.60;;;10.20;79.20;;;9.62;78.07;97561.97;4951810;28;20494;-84
2023/11/20 04:35:42;;;;;;;11.50;3.27;;;10.20;79.50;;;9.67;77.33;97559.44;4954327;28;20462;-88
2023/11/20 04:38:09;;;;;;;12.47;2.10;;;10.20;79.50;;;9.61;78.26;97550.34;4952529;28;20948;-81
2023/11/20 04:40:36;;;;;;;14.57;2.90;;;10.20;79.80;;;9.75;77.24;97553.78;4952665;28;20461;-80
2023/11/20 04:43:03;;;;;;;10.33;2.63;;;10.20;79.90;;;9.63;77.69;97540.19;4951787;28;20450;-81
2023/11/20 04:45:31;;;;;;;13.13;2.63;;;10.20;80.00;;;9.72;78.47;97556.09;4951353;28;20466;-79
2023/11/20 04:48:00;;;;;;;8.07;2.33;;;10.20;80.30;;;9.62;78.84;97554.69;4951466;28;21039;-78
2023/11/20 04:50:27;;;;;;;11.30;2.30;;;10.10;80.40;;;9.71;78.10;97554.44;4949752;28;20488;-83
2023/11/20 04:52:54;;;;;;;10.13;2.83;;;10.10;80.40;;;9.72;78.54;97554.22;4952918;28;20523;-80
2023/11/20 04:55:22;;;;;;;7.10;1.97;;;10.10;80.30;;;9.84;77.25;97556.16;4950989;28;20974;-83
2023/11/20 04:57:49;;;;;;;7.70;2.13;;;10.30;80.10;;;9.77;78.01;97540.03;4950845;28;20542;-83
2023/11/20 05:00:17;;;;;;;12.73;2.47;;;10.30;80.20;;;9.85;77.61;97557.81;4951392;28;20467;-82
2023/11/20 05:02:44;;;;;;;9.67;2.17;;;10.30;80.40;;;9.80;78.41;97546.88;4948518;28;20446;-78
2023/11/20 05:05:13;;;;;;;8.87;2.60;;;10.20;80.50;;;9.77;78.94;97537.34;4948907;28;20978;-82
2023/11/20 05:07:40;;;;;;;14.73;2.80;;;10.30;80.80;;;9.61;80.75;97533.34;4947644;29;20470;-77
2023/11/20 05:10:09;;;;;;;7.90;2.00;;;10.20;81.30;;;9.59;80.67;97533.56;4951302;28;20560;-78
2023/11/20 05:12:36;;;;;;;7.00;2.47;;;10.10;81.50;;;9.60;81.14;97540.59;4951069;28;20937;-77
2023/11/20 05:15:05;;;;;;;11.07;2.47;;;10.10;81.80;;;9.38;82.22;97525.88;4951927;28;20485;-84
2023/11/20 05:17:33;;;;;;;14.90;2.77;;;10.00;82.20;;;9.27;82.94;97522.84;4951348;29;20600;-75
2023/11/20 05:20:00;;;;;;;11.57;2.20;;;9.90;83.50;;;9.39;82.18;97535.63;4954755;28;20458;-80
2023/11/20 05:22:30;;;;;;;11.00;2.30;;;9.90;83.40;;;9.41;82.31;97536.22;4952485;28;20473;-79
2023/11/20 05:24:58;;;;;;;8.03;1.90;;;9.90;83.60;;;9.45;81.60;97537.41;4953898;28;20458;-78
2023/11/20 05:27:25;;;;;;;11.80;3.00;;;9.90;83.50;;;9.46;82.06;97539.06;4958017;28;20469;-81
2023/11/20 05:29:52;;;;;;;12.87;2.90;;;9.90;83.60;;;9.20;81.97;97482.44;4951342;28;20477;-81
2023/11/20 05:32:20;;;;;;;13.73;2.70;;;9.90;83.80;;;9.43;81.69;97537.66;4940716;28;20475;-80
2023/11/20 05:34:48;;;;;;;12.80;2.47;;;9.90;83.80;;;9.32;83.22;97533.78;4947968;28;20458;-78
2023/11/20 05:37:15;;;;;;;9.87;2.20;;;9.90;84.00;;;9.37;83.41;97540.41;4949578;28;20548;-82
2023/11/20 05:39:44;;;;;;;9.23;2.23;;;9.80;84.30;;;9.19;83.27;97544.69;4950390;29;20458;-82
2023/11/20 05:42:11;;;;;;;10.73;2.90;;;9.80;84.30;;;9.29;84.30;97536.91;4949602;28;20469;-79
2023/11/20 05:44:39;;;;;;;9.67;2.20;;;9.80;84.80;;;9.32;84.24;97543.75;4961021;28;20542;-81
2023/11/20 05:47:07;;;;;;;12.53;3.37;;;9.80;84.70;;;9.35;84.71;97537.91;4948068;28;20448;-75
2023/11/20 05:49:37;;;;;;;7.40;2.00;;;9.80;85.20;;;9.21;86.18;97548.78;4956780;28;20486;-83
2023/11/20 05:52:07;;;;;;;15.93;2.80;;;9.70;85.40;;;9.23;85.72;97547.75;4948688;28;20462;-85
2023/11/20 05:54:35;;;;;;;12.40;2.77;;;9.70;85.60;;;9.18;86.08;97543.84;4946413;28;20474;-75
2023/11/20 05:57:04;;;;;;;13.03;2.63;;;9.70;86.10;;;9.28;86.15;97546.06;4962889;28;20852;-73
2023/11/20 05:59:31;;;;;;;12.30;3.00;;;9.70;86.30;;;9.31;86.38;97534.81;4959493;28;20470;-70
2023/11/20 06:01:58;;;;;;;12.47;3.20;;;9.70;86.20;;;9.37;85.95;97532.31;4962546;28;20473;-72
2023/11/20 06:04:26;;;;;;;11.20;2.63;;;9.80;86.60;;;9.30;86.44;97530.47;4959201;28;20536;-70
2023/11/20 06:06:54;;;;;;;11.17;2.40;;;9.70;86.40;;;9.29;86.68;97539.63;4963640;28;20469;-73
2023/11/20 06:09:21;;;;;;;10.97;2.50;;;9.70;86.50;;;9.24;86.30;97530.53;4950450;28;20536;-73
2023/11/20 06:11:49;;;;;;;5.73;1.93;;;9.80;86.50;;;9.33;85.74;97524.69;4944048;28;20970;-74
2023/11/20 06:14:18;;;;;;;9.40;2.33;;;9.80;86.40;;;9.57;85.91;97530.28;4955139;28;20872;-74
2023/11/20 06:16:47;;;;;;;10.60;4.20;;;9.90;86.40;;;9.55;84.74;97531.53;4961432;28;20469;-74
2023/11/20 06:19:14;;;;;;;5.20;2.27;;;10.00;84.80;;;9.48;84.03;97531.63;4960956;28;20891;-72
2023/11/20 06:21:46;;;;;;;13.87;2.50;;;10.00;84.20;;;9.58;83.77;97528.41;4945373;28;20465;-72
2023/11/20 06:24:14;;;;;;;7.17;2.23;;;10.10;83.90;;;9.66;82.73;97528.13;4948752;28;20454;-69
2023/11/20 06:26:41;;;;;;;8.73;2.23;;;10.10;83.70;;;9.62;81.19;97533.13;4960708;28;20855;-74
2023/11/20 06:29:10;;;;;;;6.33;2.27;;;10.20;83.00;;;9.77;81.28;97538.19;4945070;28;20557;-70
2023/11/20 06:31:38;;;;;;;6.30;1.93;;;10.20;83.10;;;9.74;80.85;97546.72;4959998;28;20475;-72
2023/11/20 06:34:06;;;;;;;6.93;1.60;;;10.20;82.70;;;9.87;79.03;97545.78;4960503;28;20451;-78
2023/11/20 06:36:33;;;;;;;7.47;2.30;;;10.30;81.90;;;9.90;78.95;97549.91;4947750;29;20521;-78
2023/11/20 06:39:02;;;;;;;12.47;4.37;;;10.30;82.00;;;9.90;79.70;97548.00;4949631;28;21068;-76
2023/11/20 06:41:29;;;;;;;7.50;1.90;;;10.40;82.30;;;9.95;77.76;97541.16;4945191;28;20549;-81
2023/11/20 06:43:56;;;;;;;5.93;2.00;;;10.40;81.50;;;9.97;77.42;97544.44;4945773;28;20966;-75
2023/11/20 06:46:25;;;;;;;10.13;2.00;;;10.40;81.20;;;10.04;78.27;97545.19;4956591;28;20458;-80
2023/11/20 06:48:54;;;;;;;2.93;1.27;;;10.50;81.50;;;10.15;77.68;97551.72;4944978;28;20517;-77
2023/11/20 06:51:22;;;;;;;7.10;1.40;;;10.50;81.60;;;10.15;76.00;97546.31;4943003;28;20479;-80
2023/11/20 06:53:51;;;;;;;5.07;1.80;;;10.50;80.80;;;10.11;76.76;97556.75;4945030;29;21274;-79
2023/11/20 06:56:19;;;;;;;5.50;1.70;;;10.50;80.80;;;10.19;75.61;97563.75;4953466;28;20678;-76
2023/11/20 06:58:47;;;;;;;7.37;2.00;;;10.60;80.50;;;10.07;75.37;97558.22;4946685;28;20500;-81
2023/11/20 07:01:15;;;;;;;4.80;1.50;;;10.60;80.30;;;10.09;75.16;97566.97;4947771;28;20471;-80
2023/11/20 07:03:43;;;;;;;8.03;1.30;;;10.60;80.00;;;10.15;74.64;97574.16;4947419;28;21050;-79
2023/11/20 07:06:14;;;;;;;2.73;1.13;;;10.60;79.60;;;10.18;75.13;97565.59;4941635;28;20468;-74
2023/11/20 07:08:41;;;;;;;2.43;1.30;;;10.60;79.70;;;10.14;74.71;97556.31;4949550;29;20916;-74
2023/11/20 07:11:09;;;;;;;3.67;1.60;;;10.70;79.60;;;10.16;75.14;97567.69;4945558;28;20464;-82
2023/11/20 07:13:36;;;;;;;4.90;1.70;;;10.60;79.60;;;10.25;75.17;97570.94;4951351;28;20519;-82
2023/11/20 07:16:05;;;;;;;3.80;1.57;;;10.60;79.60;;;10.19;74.17;97556.44;4949502;28;20455;-82
2023/11/20 07:18:33;;;;;;;5.70;1.30;;;10.70;79.10;;;10.24;73.85;97571.16;4933827;28;20490;-83
2023/11/20 07:21:01;;;;;;;7.30;1.53;;;10.70;79.20;;;10.33;73.83;97575.19;4954655;28;20456;-74
2023/11/20 07:23:29;;;;;;;5.70;1.43;;;10.70;79.20;;;10.26;74.09;97577.16;4967943;29;20462;-72
2023/11/20 07:25:57;;;;;;;2.80;1.00;;;10.70;78.90;;;10.25;72.95;97578.22;4964558;28;20939;-73
2023/11/20 07:28:24;;;;;;;3.33;1.27;;;10.80;78.60;;;10.13;73.58;97572.72;4944520;28;21023;-77
2023/11/20 07:30:51;;;;;;;5.00;1.40;;;10.70;78.80;;;10.18;73.71;97572.88;4945628;28;20776;-81
2023/11/20 07:33:18;;;;;;;5.63;1.70;;;10.70;78.50;;;10.28;73.49;97577.75;4949058;28;20459;-74
2023/11/20 07:35:45;;;;;;;6.40;1.60;;;10.70;78.50;;;10.24;73.75;97557.66;4942920;28;20454;-81
2023/11/20 07:38:12;;;;;;;11.67;2.10;;;10.80;78.70;;;10.07;73.91;97571.72;4956452;28;20453;-80
2023/11/20 07:40:41;;;;;;;7.57;1.63;;;10.70;78.60;;;9.99;74.89;97574.72;4949505;28;20459;-83
2023/11/20 07:43:08;;;;;;;5.43;1.60;;;10.50;78.90;;;9.98;74.79;97573.09;4958624;28;20455;-80
2023/11/20 07:45:36;;;;;;;5.23;1.73;;;10.50;79.10;;;9.85;75.92;97569.44;4949562;28;20466;-80
2023/11/20 07:48:04;;;;;;;3.90;1.60;;;10.40;79.20;;;9.87;75.38;97583.53;4967583;28;20595;-77
2023/11/20 07:50:31;;;;;;;5.40;1.37;;;10.40;79.30;;;9.46;75.83;97504.00;4948012;29;20565;-79
2023/11/20 07:52:58;;;;;;;7.93;3.10;;;10.40;79.20;;;9.80;76.63;97576.56;4941889;28;20462;-76
2023/11/20 07:55:27;;;;;;;7.13;2.10;;;10.30;79.70;;;9.96;75.88;97580.56;4950139;28;20509;-74
2023/11/20 07:57:56;;;;;;;11.30;1.80;;;10.50;79.60;;;10.16;75.00;97569.56;4950450;28;20469;-84
2023/11/20 08:00:23;;;;;;;7.50;1.70;;;10.70;79.30;;;10.51;74.42;97587.09;4955012;28;20479;-83
2023/11/20 08:02:51;;;;;;;10.97;2.40;;;10.90;79.30;;;10.64;73.93;97584.22;4955826;28;20455;-81
2023/11/20 08:05:19;;;;;;;3.07;1.70;;;11.10;79.20;;;10.64;73.52;97592.34;4953806;29;20465;-75
2023/11/20 08:07:48;;;;;;;10.67;2.50;;;11.10;78.70;;;10.63;73.41;97579.88;4953344;28;20489;-85
2023/11/20 08:10:18;;;;;;;6.67;1.93;;;11.20;78.90;;;10.55;73.83;97572.91;4955751;28;20968;-78
2023/11/20 08:12:46;;;;;;;8.90;2.57;;;11.10;79.10;;;10.67;73.51;97578.38;4940582;28;20478;-83
2023/11/20 08:15:15;;;;;;;6.23;1.83;;;11.10;78.90;;;10.30;73.82;97524.34;4949962;28;20545;-81
2023/11/20 08:17:43;;;;;;;10.80;2.47;;;11.20;78.80;;;10.71;73.92;97576.88;4936472;29;20460;-81
2023/11/20 08:20:11;;;;;;;5.83;1.93;;;11.20;79.20;;;10.77;73.05;97569.75;4952278;28;20464;-87
2023/11/20 08:22:38;;;;;;;10.17;2.50;;;11.20;78.70;;;10.98;73.01;97581.91;4931027;29;20592;-87
2023/11/20 08:25:08;;;;;;;6.30;2.00;;;11.40;78.70;;;10.95;72.83;97576.97;4956144;28;20817;-74
2023/11/20 08:27:37;;;;;;;9.83;2.13;;;11.40;78.50;;;10.96;72.36;97573.22;4956601;28;20478;-75
2023/11/20 08:30:08;;;;;;;5.40;2.20;;;11.40;78.40;;;10.69;73.18;97568.19;4972201;28;20509;-74
2023/11/20 08:32:36;;;;;;;10.37;2.50;;;11.40;78.30;;;10.83;72.84;97573.38;4959205;28;20456;-83
2023/11/20 08:35:06;;;;;;;7.90;1.97;;;11.30;78.30;;;11.14;71.83;97575.06;4959229;28;20469;-74
2023/11/20 08:37:33;;;;;;;12.53;2.27;;;11.50;78.30;;;11.36;70.65;97576.41;4970318;28;20635;-81
2023/11/20 08:40:02;;;;;;;5.07;1.90;;;11.70;77.70;;;11.35;71.07;97586.41;4952617;28;21024;-83
2023/11/20 08:42:30;;;;;;;8.40;1.53;;;11.90;77.70;;;11.12;70.93;97576.31;4932350;29;20442;-80
2023/11/20 08:44:57;;;;;;;3.10;1.80;;;11.80;77.50;;;11.14;71.50;97585.88;4965657;28;20446;-72
2023/11/20 08:47:25;;;;;;;5.63;1.73;;;11.70;77.60;;;10.85;71.45;97538.88;4955314;28;20574;-77
2023/11/20 08:49:53;;;;;;;4.90;1.63;;;11.70;77.80;;;11.23;71.43;97585.56;4954774;28;20477;-77
2023/11/20 08:52:21;;;;;;;7.27;1.80;;;11.70;77.50;;;11.20;71.86;97587.63;4952068;28;20517;-81
2023/11/20 08:54:48;;;;;;;7.03;1.60;;;11.80;77.80;;;11.42;71.04;97586.28;4950797;28;20789;-80
2023/11/20 08:57:16;;;;;;;6.67;1.57;;;11.80;77.80;;;11.31;71.40;97583.34;4945463;28;20677;-82
2023/11/20 08:59:43;;;;;;;3.47;1.30;;;11.90;77.70;;;10.71;71.46;97501.22;4962946;28;20559;-78
2023/11/20 09:02:10;;;;;;;6.23;1.33;;;11.80;77.60;;;11.23;72.40;97583.66;4950444;28;20554;-80
2023/11/20 09:04:37;;;;;;;4.87;1.77;;;11.80;78.00;;;11.17;74.00;97573.78;4948492;28;20463;-79
2023/11/20 09:07:06;;;;;;;4.70;1.67;;;11.70;78.80;;;11.04;74.13;97581.03;4951333;28;20446;-80
2023/11/20 09:09:35;;;;;;;11.70;1.73;;;11.60;78.80;;;11.13;73.34;97580.69;4951876;28;20463;-81
2023/11/20 09:12:02;;;;;;;6.13;1.80;;;11.70;78.60;;;11.19;73.37;97582.47;4947314;28;20481;-70
2023/11/20 09:14:29;;;;;;;7.13;2.17;;;11.70;78.60;;;11.24;73.48;97593.41;4947675;29;20466;-81
2023/11/20 09:16:57;;;;;;;5.97;1.57;;;11.70;79.00;;;11.10;73.34;97591.97;4945985;28;20462;-74
2023/11/20 09:19:24;;;;;;;4.03;1.40;;;11.70;78.40;;;11.11;73.47;97588.19;4962230;28;21021;-81
2023/11/20 09:21:51;;;;;;;7.20;1.67;;;11.70;78.60;;;10.99;73.88;97580.84;4950935;28;20537;-84
2023/11/20 09:24:20;;;;;;;9.47;1.63;;;11.60;78.70;;;11.23;72.13;97578.25;4952178;28;20454;-72
2023/11/20 09:26:48;;;;;;;6.53;2.00;;;11.70;78.30;;;11.44;71.51;97587.72;4961272;28;20498;-84
2023/11/20 09:29:15;;;;;;;8.23;1.20;;;11.90;77.90;;;11.12;72.74;97589.84;4955678;29;20464;-76
2023/11/20 09:31:46;;;;;;;9.23;1.77;;;11.80;78.00;;;11.01;73.10;97586.06;4977651;28;20745;-73
2023/11/20 09:34:14;;;;;;;9.77;2.40;;;11.60;78.00;;;11.09;73.48;97587.59;4962749;28;20780;-79
2023/11/20 09:36:42;;;;;;;10.27;2.47;;;11.60;78.40;;;10.93;73.62;97589.09;4966609;28;20455;-73
2023/11/20 09:39:13;;;;;;;7.60;2.43;;;11.50;78.30;;;11.08;73.90;97581.41;4964125;28;20470;-74
2023/11/20 09:41:43;;;;;;;5.97;1.83;;;11.60;78.70;;;11.14;73.79;97590.44;4969570;28;20524;-73
2023/11/20 09:44:12;;;;;;;6.80;2.40;;;11.60;78.80;;;11.00;73.29;97590.66;4967529;28;20455;-73
2023/11/20 09:46:45;;;;;;;6.53;1.00;;;11.60;78.60;;;11.13;73.05;97583.38;4980169;28;20454;-76
2023/11/20 09:49:22;;;;;;;3.60;1.43;;;11.60;78.20;;;11.28;72.49;97569.47;4965906;28;20436;-72
2023/11/20 09:51:53;;;;;;;7.30;1.73;;;11.70;78.30;;;11.36;71.69;97574.50;4959655;28;20513;-79
2023/11/20 09:54:21;;;;;;;4.27;1.10;;;11.90;77.90;;;11.32;71.43;97576.03;4953283;28;20490;-71
2023/11/20 09:56:50;;;;;;;8.17;1.93;;;11.80;77.70;;;11.31;71.24;97577.09;4944753;28;20571;-70
2023/11/20 09:59:17;;;;;;;3.83;1.50;;;11.80;77.60;;;11.26;71.17;97569.69;4941635;28;20458;-70
2023/11/20 10:01:46;;;;;;;7.30;3.43;;;11.90;77.40;;;11.49;71.05;97581.63;4944812;28;20466;-71
2023/11/20 10:04:17;;;;;;;4.50;1.40;;;11.90;77.50;;;11.44;70.85;97567.94;4945771;28;20589;-70
2023/11/20 10:06:45;;;;;;;4.43;1.43;;;12.00;77.30;;;11.29;70.71;97566.50;4945058;28;20991;-71
2023/11/20 10:09:13;;;;;;;5.60;1.60;;;11.90;77.20;;;11.61;70.74;97568.94;4947574;28;21395;-69
2023/11/20 10:11:43;;;;;;;4.97;1.80;;;12.10;77.30;;;11.64;70.27;97559.53;4946454;28;20531;-76
2023/11/20 10:14:13;;;;;;;4.43;1.50;;;12.10;77.30;;;11.68;69.58;97565.28;4950438;28;20457;-76
2023/11/20 10:16:43;;;;;;;4.23;1.23;;;12.20;76.70;;;11.72;69.42;97566.47;4951361;28;20465;-77
2023/11/20 10:19:14;;;;;;;7.70;2.07;;;12.30;76.70;;;11.74;69.86;97561.63;4959896;28;20509;-80
2023/11/20 10:21:41;;;;;;;5.17;1.30;;;12.30;76.60;;;11.61;69.63;97552.72;4967553;29;20458;-71
2023/11/20 10:24:13;;;;;;;2.70;1.03;;;12.30;76.50;;;11.81;69.83;97556.97;4968772;29;20453;-71